Time;durP1;ratioP1;P1;durP2;ratioP2;P2;SDS_P1;SDS_P2;PMS_P1;PMS_P2;Temp;Humidity;BMP_temperature;BMP_pressure;BME280_temperature;BME280_humidity;BME280_pressure;Samples;Min_cycle;Max_cycle;Signal;HPM_P1;HPM_P2
2021/06/08 00:01:16;;;;;;;6.53;5.17;;;;;;;14.51;92.94;100073.04;1701403;84;21379;-54
2021/06/08 00:04:23;;;;;;;6.78;5.25;;;;;;;14.54;93.14;100076.23;1701529;84;21427;-52
2021/06/08 00:07:28;;;;;;;8.38;5.58;;;;;;;14.56;93.31;100078.27;1701389;84;21244;-52
2021/06/08 00:10:33;;;;;;;7.50;5.70;;;;;;;14.60;93.61;100084.20;1701403;84;21390;-52
2021/06/08 00:13:40;;;;;;;7.67;6.20;;;;;;;14.64;93.88;100082.72;1701545;84;21927;-53
2021/06/08 00:16:47;;;;;;;7.83;6.40;;;;;;;14.69;94.11;100090.69;1701445;84;21280;-52
2021/06/08 00:19:53;;;;;;;8.60;6.08;;;;;;;14.75;94.28;100087.61;1700560;84;21248;-52
2021/06/08 00:22:59;;;;;;;8.20;6.35;;;;;;;14.79;94.35;100090.28;1701399;84;21232;-52
2021/06/08 00:26:05;;;;;;;7.20;6.03;;;;;;;14.82;94.31;100088.48;1701394;84;21387;-53
2021/06/08 00:29:11;;;;;;;7.20;6.33;;;;;;;14.85;94.24;100086.16;1701422;84;21407;-52
2021/06/08 00:32:18;;;;;;;7.12;5.97;;;;;;;14.86;94.13;100099.39;1701488;84;21371;-52
2021/06/08 00:35:25;;;;;;;6.72;5.90;;;;;;;14.87;94.01;100096.97;1701491;84;21390;-52
2021/06/08 00:38:31;;;;;;;8.03;6.00;;;;;;;14.85;93.84;100102.70;1703343;83;21755;-52
2021/06/08 00:41:45;;;;;;;8.53;6.72;;;;;;;14.87;93.97;100102.48;1703718;84;21241;-53
2021/06/08 00:44:48;;;;;;;;;;;;;;;14.89;94.05;100099.82;1706220;84;21244;-53
2021/06/08 00:47:54;;;;;;;8.78;6.70;;;;;;;14.92;94.13;100104.91;1703814;84;20252;-53
2021/06/08 00:50:59;;;;;;;8.85;6.25;;;;;;;14.93;94.07;100103.88;1703931;84;21264;-53
2021/06/08 00:54:07;;;;;;;10.88;6.42;;;;;;;14.94;94.10;100105.56;1669739;86;21327;-53
2021/06/08 00:57:14;;;;;;;8.83;6.15;;;;;;;14.95;94.03;100105.86;1690812;84;21788;-53
2021/06/08 01:00:19;;;;;;;11.63;7.22;;;;;;;14.97;93.99;100104.27;1667449;86;21233;-53
2021/06/08 01:03:24;;;;;;;9.85;7.17;;;;;;;14.98;93.96;100104.61;1667542;85;21260;-53
2021/06/08 01:06:30;;;;;;;9.50;6.80;;;;;;;15.01;94.05;100111.08;1667375;86;21232;-54
2021/06/08 01:09:35;;;;;;;10.63;7.50;;;;;;;15.02;94.05;100104.49;1701279;84;21241;-53
2021/06/08 01:12:41;;;;;;;8.20;7.33;;;;;;;15.01;93.85;100111.91;1701404;84;21220;-54
2021/06/08 01:15:47;;;;;;;9.50;7.60;;;;;;;15.02;93.88;100115.52;1665464;85;21285;-53
2021/06/08 01:18:54;;;;;;;8.98;6.95;;;;;;;15.03;93.97;100122.75;1690270;84;21358;-53
2021/06/08 01:21:59;;;;;;;9.05;7.60;;;;;;;15.01;93.81;100120.73;1700628;84;21247;-54
2021/06/08 01:25:05;;;;;;;10.40;7.15;;;;;;;14.99;93.59;100119.56;1700488;84;21271;-53
2021/06/08 01:28:10;;;;;;;9.23;7.70;;;;;;;14.99;93.67;100121.46;1667338;86;21256;-53
2021/06/08 01:31:21;;;;;;;10.38;8.20;;;;;;;14.99;93.74;100123.70;1701417;84;21359;-54
2021/06/08 01:34:26;;;;;;;9.58;7.25;;;;;;;14.99;93.71;100120.94;1701635;84;21957;-53
2021/06/08 01:37:32;;;;;;;8.95;7.30;;;;;;;14.99;93.57;100124.22;1701488;84;21379;-53
2021/06/08 01:40:37;;;;;;;13.28;7.00;;;;;;;14.97;93.53;100131.84;1667417;86;21300;-53
2021/06/08 01:43:42;;;;;;;9.33;7.20;;;;;;;14.98;93.75;100132.18;1667037;86;21240;-54
2021/06/08 01:46:47;;;;;;;12.70;8.10;;;;;;;15.00;93.93;100138.31;1700647;84;21204;-54
2021/06/08 01:49:54;;;;;;;9.85;8.13;;;;;;;15.03;94.10;100136.54;1667062;86;21247;-54
2021/06/08 01:53:04;;;;;;;14.83;8.00;;;;;;;15.06;94.14;100135.25;1639884;87;21218;-53
2021/06/08 01:56:13;;;;;;;8.53;7.50;;;;;;;15.07;93.96;100130.05;1701427;84;21379;-53
2021/06/08 01:59:33;;;;;;;10.23;7.80;;;;;;;15.05;93.63;100131.64;1701219;84;21433;-53
2021/06/08 02:02:54;;;;;;;9.45;7.42;;;;;;;15.03;93.38;100129.64;1701280;84;21821;-53
2021/06/08 02:06:07;;;;;;;8.68;7.83;;;;;;;15.04;93.43;100139.60;1701378;84;21398;-54
2021/06/08 02:09:54;;;;;;;8.58;7.70;;;;;;;15.06;93.72;100134.73;1701309;84;21241;-53
2021/06/08 02:13:15;;;;;;;9.65;7.83;;;;;;;15.10;93.82;100138.75;1701161;84;21351;-54
2021/06/08 02:16:34;;;;;;;12.47;8.33;;;;;;;15.13;93.83;100137.50;1693450;84;21209;-52
2021/06/08 02:19:39;;;;;;;12.53;7.95;;;;;;;15.16;93.85;100139.83;1696289;84;21844;-54
2021/06/08 02:22:46;;;;;;;10.65;8.18;;;;;;;15.18;93.81;100133.03;1646741;86;21411;-54
2021/06/08 02:25:52;;;;;;;9.50;7.97;;;;;;;15.21;93.67;100140.02;1675733;84;21339;-53
2021/06/08 02:28:57;;;;;;;10.93;8.10;;;;;;;15.23;93.63;100136.02;1701115;84;21347;-53
2021/06/08 02:32:02;;;;;;;10.08;8.38;;;;;;;15.26;93.68;100138.34;1667161;86;21229;-55
2021/06/08 02:35:09;;;;;;;9.53;8.23;;;;;;;15.30;93.62;100140.16;1639430;87;21679;-53
2021/06/08 02:38:14;;;;;;;11.50;8.63;;;;;;;15.33;93.43;100131.45;1700899;84;21348;-52
2021/06/08 02:41:19;;;;;;;14.80;9.45;;;;;;;15.37;93.42;100132.70;1700680;84;21332;-53
2021/06/08 02:44:24;;;;;;;11.15;9.20;;;;;;;15.40;93.25;100134.55;1666752;86;21236;-53
2021/06/08 02:47:29;;;;;;;12.43;8.70;;;;;;;15.43;93.00;100147.91;1667149;86;21236;-53
2021/06/08 02:50:35;;;;;;;11.18;8.95;;;;;;;15.46;92.96;100147.48;1700888;84;21394;-53
2021/06/08 02:53:41;;;;;;;18.57;9.48;;;;;;;15.50;92.99;100146.53;1700749;84;21359;-53
2021/06/08 02:56:46;;;;;;;11.78;9.13;;;;;;;15.53;92.94;100142.83;1655765;85;22143;-53
2021/06/08 02:59:51;;;;;;;8.85;7.95;;;;;;;15.59;92.89;100149.38;1673762;85;21236;-53
2021/06/08 03:02:53;;;;;;;9.90;8.45;;;;;;;15.64;92.78;100149.08;1674015;85;21240;-54
2021/06/08 03:06:07;;;;;;;14.80;8.70;;;;;;;15.66;92.68;100146.95;1673856;85;21383;-53
2021/06/08 03:09:20;;;;;;;10.68;8.10;;;;;;;15.71;92.44;100149.92;1674043;85;21774;-54
2021/06/08 03:12:27;;;;;;;9.88;8.80;;;;;;;15.76;92.41;100152.86;1673888;85;21212;-53
2021/06/08 03:15:43;;;;;;;9.38;7.65;;;;;;;15.82;92.44;100162.22;1674407;85;21260;-54
2021/06/08 03:18:48;;;;;;;10.10;7.85;;;;;;;15.88;92.39;100153.92;1674375;85;21330;-53
2021/06/08 03:21:54;;;;;;;7.90;7.10;;;;;;;15.94;92.28;100157.72;1674415;85;21422;-55
2021/06/08 03:25:02;;;;;;;9.63;7.30;;;;;;;15.99;92.16;100149.12;1658627;85;21284;-54
2021/06/08 03:28:07;;;;;;;9.10;7.90;;;;;;;16.05;92.07;100147.39;1674614;85;21235;-54
2021/06/08 03:31:12;;;;;;;9.08;7.70;;;;;;;16.10;91.89;100144.30;1674412;85;21260;-54
2021/06/08 03:34:19;;;;;;;10.15;8.98;;;;;;;16.16;91.64;100150.34;1674544;85;21256;-52
2021/06/08 03:37:25;;;;;;;16.35;9.23;;;;;;;16.23;91.58;100151.17;1674381;85;21363;-53
2021/06/08 03:40:31;;;;;;;9.10;8.13;;;;;;;16.31;91.51;100153.70;1678860;80;21371;-53
2021/06/08 03:43:37;;;;;;;9.18;7.75;;;;;;;16.38;91.37;100151.73;1672168;86;21241;-53
2021/06/08 03:46:42;;;;;;;9.03;7.75;;;;;;;16.44;91.18;100151.41;1684604;85;21223;-52
2021/06/08 03:49:48;;;;;;;11.15;7.67;;;;;;;16.48;91.03;100153.20;1683240;85;21239;-52
2021/06/08 03:52:55;;;;;;;9.18;7.83;;;;;;;16.52;90.91;100157.24;1684630;85;21219;-53
2021/06/08 03:56:00;;;;;;;9.03;8.08;;;;;;;16.56;90.85;100150.20;1684490;85;21259;-52
2021/06/08 03:59:06;;;;;;;10.00;8.95;;;;;;;16.60;90.76;100152.33;1670518;86;21872;-53
2021/06/08 04:02:12;;;;;;;12.60;9.13;;;;;;;16.66;90.73;100160.25;1684566;85;21267;-52
2021/06/08 04:05:18;;;;;;;11.50;9.33;;;;;;;16.71;90.62;100159.92;1684404;85;21769;-53
2021/06/08 04:08:26;;;;;;;12.70;8.90;;;;;;;16.80;90.38;100167.41;1684728;85;21200;-53
2021/06/08 04:11:31;;;;;;;11.93;8.35;;;;;;;16.88;90.20;100164.38;1684162;85;21263;-52
2021/06/08 04:14:36;;;;;;;11.48;9.18;;;;;;;16.97;90.11;100178.25;1671662;86;21248;-53
2021/06/08 04:17:44;;;;;;;10.90;9.03;;;;;;;17.04;89.88;100174.92;1637776;87;21224;-54
2021/06/08 04:20:49;;;;;;;10.93;8.33;;;;;;;17.11;89.74;100172.98;1685978;84;21893;-53
2021/06/08 04:24:06;;;;;;;10.72;9.23;;;;;;;17.15;89.51;100177.83;1700396;84;21197;-53
2021/06/08 04:27:11;;;;;;;9.63;8.63;;;;;;;17.22;89.21;100180.56;1687616;84;21208;-53
2021/06/08 04:30:18;;;;;;;9.48;8.48;;;;;;;17.29;89.09;100182.72;1700656;84;21378;-53
2021/06/08 04:33:28;;;;;;;11.85;8.08;;;;;;;17.32;88.75;100178.12;1701327;84;21390;-53
2021/06/08 04:36:35;;;;;;;10.43;7.93;;;;;;;17.37;88.74;100172.77;1701864;83;21236;-53
2021/06/08 04:39:40;;;;;;;9.40;8.40;;;;;;;17.42;88.46;100173.80;1700845;84;21414;-53
2021/06/08 04:42:48;;;;;;;9.88;8.30;;;;;;;17.50;88.41;100179.09;1691874;82;21264;-52
2021/06/08 04:45:53;;;;;;;12.03;8.95;;;;;;;17.58;88.30;100172.42;1673716;85;21291;-51
2021/06/08 04:49:00;;;;;;;12.95;9.25;;;;;;;17.62;88.04;100169.50;1698133;84;21739;-52
2021/06/08 04:52:06;;;;;;;13.50;9.83;;;;;;;17.66;87.83;100177.11;1700666;84;21742;-51
2021/06/08 04:55:13;;;;;;;10.88;9.53;;;;;;;17.72;87.71;100173.47;1696709;84;21390;-50
2021/06/08 04:58:18;;;;;;;9.83;8.83;;;;;;;17.86;87.72;100178.33;1684516;84;21256;-51
2021/06/08 05:01:45;;;;;;;11.28;9.73;;;;;;;18.02;87.63;100173.59;1682203;85;21225;-51
2021/06/08 05:04:51;;;;;;;11.28;9.33;;;;;;;18.21;87.33;100175.83;1654717;86;21247;-53
2021/06/08 05:08:17;;;;;;;11.50;9.38;;;;;;;18.38;86.72;100164.46;1654972;85;21269;-54
2021/06/08 05:11:45;;;;;;;10.65;8.88;;;;;;;18.51;86.14;100165.16;1655216;86;21702;-54
2021/06/08 05:14:56;;;;;;;12.20;9.55;;;;;;;18.66;85.47;100168.36;1684405;84;21230;-55
2021/06/08 05:18:01;;;;;;;13.20;9.50;;;;;;;18.82;84.84;100162.17;1698689;84;21788;-53
2021/06/08 05:21:08;;;;;;;11.68;10.38;;;;;;;18.94;84.01;100166.39;1699604;84;21927;-54
2021/06/08 05:24:13;;;;;;;10.60;9.50;;;;;;;19.06;83.78;100172.82;1700432;84;21394;-55
2021/06/08 05:27:27;;;;;;;11.83;9.78;;;;;;;19.17;83.00;100165.11;1666823;86;21300;-54
2021/06/08 05:30:33;;;;;;;11.63;10.43;;;;;;;19.23;82.57;100168.32;1667300;86;21241;-55
2021/06/08 05:33:40;;;;;;;11.03;9.90;;;;;;;19.27;82.17;100169.52;1700062;84;21354;-55
2021/06/08 05:36:46;;;;;;;12.07;10.88;;;;;;;19.37;82.28;100171.75;1695720;84;21206;-54
2021/06/08 05:39:53;;;;;;;12.03;9.88;;;;;;;19.38;81.66;100174.29;1675545;85;21239;-56
2021/06/08 05:42:58;;;;;;;11.38;10.20;;;;;;;19.43;81.49;100173.57;1679762;83;21244;-53
2021/06/08 05:46:05;;;;;;;11.12;9.28;;;;;;;19.49;81.24;100175.42;1646554;86;21267;-54
2021/06/08 05:49:16;;;;;;;11.22;10.13;;;;;;;19.53;80.63;100176.62;1647106;86;21352;-55
2021/06/08 05:52:22;;;;;;;10.80;9.70;;;;;;;19.55;80.43;100171.12;1631745;87;21266;-54
2021/06/08 05:55:29;;;;;;;10.23;9.03;;;;;;;19.61;80.10;100174.88;1647151;86;21367;-54
2021/06/08 05:58:36;;;;;;;13.93;9.28;;;;;;;19.66;79.81;100168.08;1646547;86;21238;-54
2021/06/08 06:01:48;;;;;;;12.80;10.03;;;;;;;19.70;79.54;100172.05;1646898;86;21289;-54
2021/06/08 06:04:51;;;;;;;11.60;9.50;;;;;;;19.74;79.26;100173.28;1631817;87;21270;-55
2021/06/08 06:07:56;;;;;;;10.48;9.38;;;;;;;19.74;78.85;100170.50;1647290;86;21834;-55
2021/06/08 06:11:02;;;;;;;12.70;9.60;;;;;;;19.72;78.74;100171.27;1646349;86;21808;-54
2021/06/08 06:14:07;;;;;;;10.75;9.65;;;;;;;19.68;78.43;100164.52;1646366;86;21223;-55
2021/06/08 06:17:15;;;;;;;11.50;9.95;;;;;;;19.68;78.81;100164.52;1647445;86;21215;-55
2021/06/08 06:20:22;;;;;;;10.82;9.73;;;;;;;19.73;78.71;100161.31;1656642;86;21248;-54
2021/06/08 06:23:31;;;;;;;12.33;9.20;;;;;;;19.71;78.48;100155.14;1679691;84;21327;-54
2021/06/08 06:26:39;;;;;;;11.12;9.33;;;;;;;19.72;78.05;100155.46;1696554;84;21307;-55
2021/06/08 06:29:45;;;;;;;10.72;9.63;;;;;;;19.75;78.27;100157.76;1671400;86;21244;-53
2021/06/08 06:32:51;;;;;;;10.68;7.85;;;;;;;19.83;78.51;100156.02;1704795;84;21227;-53
2021/06/08 06:35:56;;;;;;;9.05;8.13;;;;;;;19.91;78.16;100153.41;1708804;83;21229;-53
2021/06/08 06:39:12;;;;;;;10.58;8.48;;;;;;;19.94;77.09;100148.22;1673609;85;21288;-55
2021/06/08 06:42:19;;;;;;;11.20;8.18;;;;;;;20.03;76.72;100150.06;1642226;87;21253;-54
2021/06/08 06:45:31;;;;;;;8.35;7.28;;;;;;;20.11;76.61;100142.75;1678760;82;21624;-54
2021/06/08 06:48:38;;;;;;;8.60;7.15;;;;;;;20.17;76.16;100141.83;1673010;85;21220;-55
2021/06/08 06:51:44;;;;;;;7.53;6.20;;;;;;;20.22;75.67;100134.97;1695949;84;21732;-54
2021/06/08 06:54:52;;;;;;;6.87;6.15;;;;;;;20.30;74.83;100137.38;1679427;83;21190;-54
2021/06/08 06:57:58;;;;;;;5.78;5.17;;;;;;;20.34;74.53;100138.03;1705299;83;21208;-53
2021/06/08 07:01:03;;;;;;;6.67;5.97;;;;;;;20.40;73.36;100134.83;1705317;83;21378;-53
2021/06/08 07:04:09;;;;;;;6.75;5.45;;;;;;;20.41;72.46;100130.41;1705730;83;21398;-54
2021/06/08 07:07:14;;;;;;;6.95;6.25;;;;;;;20.42;72.42;100134.87;1690943;84;21225;-54
2021/06/08 07:10:20;;;;;;;8.03;6.42;;;;;;;20.42;72.26;100134.05;1699802;83;21248;-55
2021/06/08 07:13:26;;;;;;;6.28;5.10;;;;;;;20.51;72.26;100136.73;1645004;86;21280;-54
2021/06/08 07:16:32;;;;;;;8.90;5.65;;;;;;;20.63;69.69;100120.84;1633580;87;21344;-54
2021/06/08 07:19:42;;;;;;;5.80;5.20;;;;;;;20.75;69.44;100121.12;1674716;84;21201;-54
2021/06/08 07:22:51;;;;;;;7.08;6.37;;;;;;;20.90;68.95;100123.33;1674594;85;21217;-54
2021/06/08 07:25:59;;;;;;;6.67;5.92;;;;;;;21.04;67.95;100111.39;1689686;83;21832;-54
2021/06/08 07:29:05;;;;;;;5.60;5.10;;;;;;;21.30;67.56;100115.77;1672626;85;21236;-55
2021/06/08 07:32:12;;;;;;;7.03;5.47;;;;;;;21.48;66.64;100120.25;1678829;84;21789;-55
2021/06/08 07:35:31;;;;;;;5.97;5.37;;;;;;;21.57;66.29;100123.75;1673441;84;21209;-54
2021/06/08 07:38:56;;;;;;;6.00;5.00;;;;;;;21.63;65.06;100112.98;1676866;85;21757;-54
2021/06/08 07:42:19;;;;;;;5.65;5.12;;;;;;;21.82;64.17;100113.04;1666459;84;21237;-54
2021/06/08 07:45:34;;;;;;;6.65;5.50;;;;;;;21.97;62.62;100107.70;1683041;83;21201;-54
2021/06/08 07:48:42;;;;;;;6.37;5.17;;;;;;;22.11;63.04;100099.27;1675105;85;21202;-54
2021/06/08 07:51:49;;;;;;;6.33;5.05;;;;;;;22.31;62.71;100101.46;1652912;86;21342;-54
2021/06/08 07:54:55;;;;;;;5.80;4.75;;;;;;;22.48;61.60;100098.63;1662321;84;21439;-55
2021/06/08 07:58:03;;;;;;;5.20;4.70;;;;;;;22.60;61.63;100093.23;1671547;83;21784;-54
2021/06/08 08:01:10;;;;;;;5.60;4.87;;;;;;;22.61;61.16;100091.29;1675723;83;21209;-55
2021/06/08 08:04:19;;;;;;;5.95;4.85;;;;;;;22.54;61.42;100088.69;1646733;87;21260;-54
2021/06/08 08:07:33;;;;;;;5.72;5.22;;;;;;;22.48;61.89;100100.02;1670613;83;21848;-56
2021/06/08 08:10:40;;;;;;;6.17;5.58;;;;;;;22.40;61.81;100096.28;1673544;85;21347;-55
2021/06/08 08:13:56;;;;;;;6.03;5.40;;;;;;;22.30;62.11;100094.75;1677476;85;21814;-55
2021/06/08 08:17:03;;;;;;;6.12;5.50;;;;;;;22.13;61.77;100103.19;1673144;85;21228;-55
2021/06/08 08:20:10;;;;;;;9.85;5.30;;;;;;;21.96;62.74;100106.00;1673132;85;21855;-55
2021/06/08 08:23:17;;;;;;;6.50;5.83;;;;;;;21.93;63.01;100098.69;1670830;85;21177;-55
2021/06/08 08:26:25;;;;;;;5.58;5.00;;;;;;;21.96;63.72;100107.39;1637245;86;21224;-55
2021/06/08 08:29:31;;;;;;;8.53;5.67;;;;;;;22.07;62.93;100093.89;1671914;85;21193;-56
2021/06/08 08:32:40;;;;;;;6.87;5.12;;;;;;;22.18;61.97;100097.11;1675449;85;21432;-55
2021/06/08 08:35:52;;;;;;;6.37;5.35;;;;;;;22.31;62.15;100100.64;1675924;85;22022;-55
2021/06/08 08:38:58;;;;;;;5.75;5.03;;;;;;;22.46;60.80;100098.03;1676576;85;21230;-56
2021/06/08 08:42:07;;;;;;;5.50;4.87;;;;;;;22.65;60.78;100098.02;1676037;85;21390;-55
2021/06/08 08:45:16;;;;;;;6.33;5.47;;;;;;;22.80;60.22;100096.23;1676162;85;21386;-56
2021/06/08 08:48:23;;;;;;;4.60;3.95;;;;;;;22.94;59.53;100099.48;1618126;86;21272;-55
2021/06/08 08:51:29;;;;;;;5.10;3.55;;;;;;;23.05;58.28;100094.28;1624479;87;21220;-55
2021/06/08 08:54:35;;;;;;;7.00;3.65;;;;;;;23.09;57.94;100098.22;1628277;88;21262;-55
2021/06/08 08:57:40;;;;;;;5.08;4.58;;;;;;;23.06;56.80;100104.34;1633900;86;21248;-56
2021/06/08 09:00:45;;;;;;;5.87;4.12;;;;;;;22.93;57.08;100100.59;1644189;87;21440;-56
2021/06/08 09:03:53;;;;;;;5.50;4.00;;;;;;;22.92;57.40;100103.08;1644062;87;21889;-55
2021/06/08 09:07:00;;;;;;;4.70;4.20;;;;;;;23.07;57.03;100100.45;1644268;87;21383;-55
2021/06/08 09:10:09;;;;;;;5.80;4.08;;;;;;;23.19;57.56;100109.50;1644159;87;21836;-54
2021/06/08 09:13:15;;;;;;;6.22;4.00;;;;;;;23.16;56.52;100100.26;1644744;87;21460;-54
2021/06/08 09:16:22;;;;;;;3.92;3.40;;;;;;;23.04;56.13;100099.59;1644829;87;21386;-54
2021/06/08 09:19:30;;;;;;;3.95;3.17;;;;;;;22.98;55.99;100092.25;1644640;87;21398;-56
2021/06/08 09:22:56;;;;;;;7.28;3.40;;;;;;;22.95;54.58;100095.56;1644577;87;21375;-54
2021/06/08 09:26:04;;;;;;;4.67;2.77;;;;;;;22.95;54.07;100089.98;1640437;86;21377;-55
2021/06/08 09:29:10;;;;;;;4.42;3.58;;;;;;;23.02;54.72;100089.23;1630258;87;21680;-55
2021/06/08 09:32:31;;;;;;;8.58;3.58;;;;;;;23.16;54.34;100069.53;1628522;87;21296;-54
2021/06/08 09:35:38;;;;;;;4.80;4.08;;;;;;;23.28;55.02;100061.30;1644339;87;21388;-56
2021/06/08 09:38:54;;;;;;;5.58;3.27;;;;;;;23.37;55.75;100056.90;1644494;87;21217;-55
2021/06/08 09:41:59;;;;;;;5.92;4.70;;;;;;;23.43;54.55;100053.61;1637454;86;21237;-55
2021/06/08 09:45:27;;;;;;;4.22;3.83;;;;;;;23.50;55.18;100054.20;1634182;85;21209;-54
2021/06/08 09:48:32;;;;;;;5.08;3.77;;;;;;;23.64;55.58;100056.84;1661195;81;21761;-56
2021/06/08 09:52:03;;;;;;;5.30;4.37;;;;;;;23.80;54.15;100059.19;1673611;85;21265;-55
2021/06/08 09:55:08;;;;;;;4.58;4.05;;;;;;;23.90;53.78;100057.28;1678602;85;21801;-56
2021/06/08 09:58:18;;;;;;;6.15;4.22;;;;;;;24.03;54.15;100047.05;1675001;85;21284;-55
2021/06/08 10:01:34;;;;;;;4.78;3.33;;;;;;;24.24;54.07;100040.99;1681903;84;21367;-58
2021/06/08 10:04:39;;;;;;;4.45;3.30;;;;;;;24.53;53.34;100045.03;1683434;84;21237;-56
2021/06/08 10:07:45;;;;;;;3.83;3.00;;;;;;;24.84;51.97;100040.67;1655026;86;21228;-55
2021/06/08 10:10:56;;;;;;;3.50;3.20;;;;;;;25.10;50.52;100029.50;1668064;84;21272;-56
2021/06/08 10:14:17;;;;;;;4.35;3.00;;;;;;;25.32;49.40;100030.06;1656058;86;21279;-54
2021/06/08 10:17:22;;;;;;;4.17;2.75;;;;;;;25.47;49.34;100025.31;1655309;86;21534;-53
2021/06/08 10:20:30;;;;;;;2.87;2.52;;;;;;;25.51;47.92;100024.20;1645944;84;21213;-55
2021/06/08 10:23:37;;;;;;;5.37;2.90;;;;;;;25.44;47.24;100027.83;1625760;88;21216;-55
2021/06/08 10:26:45;;;;;;;4.62;2.67;;;;;;;25.00;49.68;100014.38;1679671;83;21193;-55
2021/06/08 10:29:50;;;;;;;8.20;2.52;;;;;;;24.27;51.87;100040.45;1675701;85;21232;-52
2021/06/08 10:32:55;;;;;;;11.68;2.98;;;;;;;23.28;56.14;100060.45;1692489;84;21240;-54
2021/06/08 10:36:02;;;;;;;6.03;2.62;;;;;;;22.25;60.51;100060.67;1646601;85;21249;-57
2021/06/08 10:39:16;;;;;;;9.95;3.85;;;;;;;21.44;63.98;100057.23;1674762;84;21236;-55
2021/06/08 10:42:26;;;;;;;9.78;6.17;;;;;;;21.18;66.42;100052.90;1683517;84;21232;-56
2021/06/08 10:45:40;;;;;;;6.30;3.70;;;;;;;21.08;68.19;100048.53;1675327;84;21198;-55
2021/06/08 10:48:46;;;;;;;6.20;3.70;;;;;;;21.03;69.10;100048.44;1677858;83;21292;-55
2021/06/08 10:52:18;;;;;;;5.58;3.60;;;;;;;20.96;70.05;100044.46;1654621;85;21181;-55
2021/06/08 10:55:26;;;;;;;4.97;3.40;;;;;;;20.96;70.49;100040.28;1693996;84;21228;-56
2021/06/08 10:58:53;;;;;;;6.97;3.60;;;;;;;20.96;70.69;100035.22;1649627;84;21252;-57
2021/06/08 11:01:58;;;;;;;7.60;3.72;;;;;;;20.97;70.74;100043.35;1676739;84;21809;-56
2021/06/08 11:05:05;;;;;;;7.05;2.83;;;;;;;20.95;70.61;100051.64;1672105;85;21304;-56
2021/06/08 11:08:10;;;;;;;9.90;3.45;;;;;;;20.84;69.70;100054.77;1672341;85;21217;-57
2021/06/08 11:11:17;;;;;;;7.33;3.75;;;;;;;20.66;69.51;100068.91;1675044;85;21218;-58
2021/06/08 11:14:48;;;;;;;6.70;4.20;;;;;;;20.68;71.12;100066.70;1681976;85;21276;-57
2021/06/08 11:17:53;;;;;;;7.35;3.65;;;;;;;20.82;71.53;100068.08;1689408;84;21212;-58
2021/06/08 11:21:14;;;;;;;7.80;3.42;;;;;;;20.93;71.58;100065.77;1700058;84;21232;-57
2021/06/08 11:24:41;;;;;;;9.33;3.58;;;;;;;21.06;71.43;100058.53;1677730;84;21237;-58
2021/06/08 11:28:04;;;;;;;8.05;3.20;;;;;;;21.24;71.71;100049.09;1679333;84;21209;-58
2021/06/08 11:31:08;;;;;;;5.08;2.90;;;;;;;21.48;71.81;100048.67;1667410;84;21216;-58
2021/06/08 11:34:13;;;;;;;5.67;3.67;;;;;;;21.76;71.77;100036.03;1698561;84;21233;-58
2021/06/08 11:37:59;;;;;;;5.83;3.70;;;;;;;22.05;71.16;100033.39;1690011;84;21284;-58
2021/06/08 11:41:12;;;;;;;3.77;2.90;;;;;;;22.35;70.94;100027.34;1701036;84;21419;-58
2021/06/08 11:44:22;;;;;;;5.47;3.35;;;;;;;22.83;68.72;100023.70;1701367;83;21370;-58
2021/06/08 11:47:27;;;;;;;4.83;3.10;;;;;;;23.28;67.22;100035.30;1702241;84;21367;-58
2021/06/08 11:50:51;;;;;;;6.90;2.80;;;;;;;23.63;65.12;100043.42;1701059;81;21379;-57
2021/06/08 11:54:17;;;;;;;6.08;2.62;;;;;;;23.73;62.87;100062.75;1704762;84;21358;-58
2021/06/08 11:57:47;;;;;;;5.30;2.92;;;;;;;23.40;60.10;100069.51;1707984;84;21259;-58
2021/06/08 12:00:54;;;;;;;11.80;3.58;;;;;;;22.58;59.91;100068.09;1708298;84;21236;-56
2021/06/08 12:04:09;;;;;;;7.58;3.20;;;;;;;21.59;62.89;100078.38;1707822;84;21410;-57
2021/06/08 12:07:18;;;;;;;7.78;3.67;;;;;;;20.91;66.99;100090.25;1707911;84;21280;-56
2021/06/08 12:10:37;;;;;;;10.75;4.12;;;;;;;20.17;70.11;100083.46;1708514;84;21379;-57
2021/06/08 12:13:43;;;;;;;10.08;4.30;;;;;;;19.66;72.18;100077.81;1708338;84;21430;-57
2021/06/08 12:16:59;;;;;;;8.50;4.35;;;;;;;19.30;74.00;100067.76;1707176;84;21560;-55
2021/06/08 12:20:08;;;;;;;6.62;3.55;;;;;;;19.11;75.69;100058.66;1690116;84;21907;-56
2021/06/08 12:23:14;;;;;;;5.72;4.65;;;;;;;18.99;76.86;100052.26;1685072;84;21239;-55
2021/06/08 12:26:29;;;;;;;9.23;4.08;;;;;;;18.87;77.96;100052.75;1674449;83;21218;-55
2021/06/08 12:29:36;;;;;;;6.97;4.50;;;;;;;18.82;79.42;100051.23;1655743;86;21232;-55
2021/06/08 12:32:42;;;;;;;8.45;4.30;;;;;;;18.82;79.50;100051.23;1669876;85;21224;-57
2021/06/08 12:35:51;;;;;;;10.15;5.40;;;;;;;18.86;79.91;100056.63;1684343;84;21300;-56
2021/06/08 12:38:59;;;;;;;16.05;4.47;;;;;;;18.92;80.14;100053.42;1650465;87;21297;-55
2021/06/08 12:42:21;;;;;;;5.62;3.98;;;;;;;19.02;80.87;100057.33;1650325;87;21221;-56
2021/06/08 12:45:29;;;;;;;6.45;4.30;;;;;;;19.12;80.60;100058.95;1650826;87;21246;-54
2021/06/08 12:48:36;;;;;;;8.68;4.53;;;;;;;19.23;80.74;100052.57;1651355;87;21742;-56
2021/06/08 12:51:47;;;;;;;10.98;4.70;;;;;;;19.33;80.89;100053.39;1653713;81;21250;-57
2021/06/08 12:54:56;;;;;;;9.10;4.83;;;;;;;19.48;81.45;100057.09;1651074;87;21270;-56
2021/06/08 12:58:02;;;;;;;7.75;4.78;;;;;;;19.65;81.95;100044.16;1663966;84;21217;-56
2021/06/08 13:01:08;;;;;;;7.58;4.50;;;;;;;19.82;82.27;100039.00;1656606;86;21227;-56
2021/06/08 13:04:14;;;;;;;15.18;10.63;;;;;;;19.95;81.64;100033.72;1656218;86;21228;-56
2021/06/08 13:07:29;;;;;;;5.37;4.05;;;;;;;20.12;81.56;100037.45;1673687;84;21705;-57
2021/06/08 13:10:40;;;;;;;3.70;3.00;;;;;;;20.30;80.34;100032.58;1675958;85;21750;-56
2021/06/08 13:13:46;;;;;;;5.92;3.17;;;;;;;20.56;78.60;100039.48;1675847;85;21801;-56
2021/06/08 13:16:53;;;;;;;6.90;3.95;;;;;;;20.83;76.40;100032.75;1649524;85;21710;-58
2021/06/08 13:20:04;;;;;;;4.83;3.50;;;;;;;21.12;74.83;100038.60;1688367;84;21308;-56
2021/06/08 13:23:11;;;;;;;4.85;3.42;;;;;;;21.43;73.80;100052.77;1699564;84;21173;-56
2021/06/08 13:26:19;;;;;;;3.47;2.90;;;;;;;21.77;73.76;100042.46;1700336;84;21221;-57
2021/06/08 13:29:31;;;;;;;4.72;3.22;;;;;;;22.07;72.52;100035.34;1699974;84;22032;-56
2021/06/08 13:32:40;;;;;;;5.55;3.17;;;;;;;22.29;72.48;100020.02;1700323;84;21402;-56
2021/06/08 13:35:53;;;;;;;5.53;3.33;;;;;;;22.49;71.42;100014.66;1700494;84;21426;-56
2021/06/08 13:39:21;;;;;;;5.50;3.72;;;;;;;22.76;72.19;100011.90;1700981;84;21326;-55
2021/06/08 13:42:29;;;;;;;6.40;4.12;;;;;;;23.14;71.97;100011.16;1626692;88;21318;-55
2021/06/08 13:45:47;;;;;;;5.40;3.27;;;;;;;23.53;71.30;100007.58;1654083;86;21221;-55
2021/06/08 13:49:02;;;;;;;4.90;3.10;;;;;;;23.59;69.54;100010.11;1660177;85;21366;-54
2021/06/08 13:52:07;;;;;;;;;;;;;;;23.46;68.58;100005.02;1683683;83;21302;-56
2021/06/08 13:55:17;;;;;;;4.35;3.08;;;;;;;23.28;68.94;100000.38;1687358;84;20217;-56
2021/06/08 14:01:59;;;;;;;5.50;3.27;;;;;;;23.41;68.40;99985.97;1655537;85;21745;-57
2021/06/08 14:05:05;;;;;;;5.37;3.30;;;;;;;23.52;67.04;99984.91;1687344;85;21824;-56
2021/06/08 14:08:27;;;;;;;4.95;3.05;;;;;;;23.61;67.47;99994.47;1673023;85;21248;-55
2021/06/08 14:11:49;;;;;;;7.15;3.08;;;;;;;23.74;65.91;99991.20;1688124;85;21295;-55
2021/06/08 14:14:54;;;;;;;6.80;3.47;;;;;;;23.83;66.11;99990.99;1681567;84;21833;-55
2021/06/08 14:17:59;;;;;;;4.25;2.87;;;;;;;23.96;66.06;100000.84;1672632;85;21242;-53
2021/06/08 14:21:06;;;;;;;4.53;3.00;;;;;;;24.16;66.41;99993.95;1687857;85;21586;-55
2021/06/08 14:24:12;;;;;;;6.17;3.47;;;;;;;24.42;65.42;100000.76;1696473;84;21852;-55
2021/06/08 14:27:22;;;;;;;9.25;2.98;;;;;;;24.72;65.38;99998.65;1704034;84;21496;-55
2021/06/08 14:30:29;;;;;;;7.78;3.37;;;;;;;24.76;63.67;99995.02;1704986;84;21259;-55
2021/06/08 14:33:34;;;;;;;5.20;3.22;;;;;;;24.57;63.87;99996.62;1668111;86;21233;-55
2021/06/08 14:36:40;;;;;;;4.72;3.58;;;;;;;24.41;62.99;100003.28;1669178;86;21205;-55
2021/06/08 14:39:47;;;;;;;4.22;3.47;;;;;;;24.21;64.30;99993.44;1706394;84;21236;-55
2021/06/08 14:42:54;;;;;;;5.33;3.20;;;;;;;24.24;64.79;99981.70;1705088;84;21216;-55